Time;durP1;ratioP1;P1;durP2;ratioP2;P2;SDS_P1;SDS_P2;PMS_P1;PMS_P2;Temp;Humidity;BMP_temperature;BMP_pressure;BME280_temperature;BME280_humidity;BME280_pressure;Samples;Min_cycle;Max_cycle;Signal;HPM_P1;HPM_P2
2024/04/17 00:01:39;;;;;;;11.55;4.25;;;;;;;16.25;64.57;92562.84;5542199;26;20073;-79
2024/04/17 00:04:05;;;;;;;14.93;2.90;;;;;;;16.30;64.48;92558.25;5541383;26;19997;-79
2024/04/17 00:06:31;;;;;;;12.82;3.15;;;;;;;16.34;64.44;92559.03;5541332;26;19981;-79
2024/04/17 00:08:56;;;;;;;12.57;4.03;;;;;;;16.35;64.62;92533.69;5541737;26;20020;-79
2024/04/17 00:11:21;;;;;;;15.98;3.22;;;;;;;16.25;65.00;92537.91;5541432;25;20009;-79
2024/04/17 00:13:47;;;;;;;12.05;2.90;;;;;;;16.27;64.96;92540.22;5509855;26;20001;-79
2024/04/17 00:16:12;;;;;;;7.30;2.45;;;;;;;16.23;64.92;92535.56;5541560;25;19982;-79
2024/04/17 00:18:38;;;;;;;5.72;2.58;;;;;;;16.24;64.91;92531.75;5541815;25;20084;-79
2024/04/17 00:21:04;;;;;;;17.17;3.53;;;;;;;16.19;65.11;92521.34;5541958;26;19986;-80
2024/04/17 00:23:29;;;;;;;10.18;3.13;;;;;;;16.19;65.20;92515.22;5539937;26;19994;-79
2024/04/17 00:25:54;;;;;;;14.13;3.80;;;;;;;16.18;65.22;92519.84;5541122;25;20199;-79
2024/04/17 00:28:20;;;;;;;8.30;2.95;;;;;;;16.11;64.72;92519.03;5541739;26;19985;-78
2024/04/17 00:30:45;;;;;;;11.13;3.17;;;;;;;16.00;65.01;92513.66;5541012;26;19992;-79
2024/04/17 00:33:11;;;;;;;19.45;2.75;;;;;;;15.98;65.11;92511.31;5541067;26;20092;-79
2024/04/17 00:35:37;;;;;;;11.35;2.78;;;;;;;15.97;65.61;92511.69;5541169;26;19996;-79
2024/04/17 00:38:05;;;;;;;16.40;3.75;;;;;;;15.91;65.61;92489.03;5540825;26;19997;-79
2024/04/17 00:40:32;;;;;;;9.43;4.28;;;;;;;15.88;66.08;92487.88;5541150;26;19996;-80
2024/04/17 00:43:00;;;;;;;16.92;3.63;;;;;;;15.85;66.59;92507.44;5541062;26;20000;-80
2024/04/17 00:45:45;;;;;;;10.40;4.07;;;;;;;15.79;66.24;92493.63;5540992;26;20200;-80
2024/04/17 00:48:12;;;;;;;12.10;3.20;;;;;;;15.73;66.08;92495.09;5509423;26;19992;-80
2024/04/17 00:50:40;;;;;;;11.27;3.17;;;;;;;15.71;66.44;92483.19;5541053;25;20037;-80
2024/04/17 00:53:08;;;;;;;11.32;2.90;;;;;;;15.73;66.38;92505.09;5541251;26;19993;-80
2024/04/17 00:55:33;;;;;;;12.05;3.33;;;;;;;15.66;66.39;92478.94;5540672;26;20013;-79
2024/04/17 00:58:01;;;;;;;11.10;3.45;;;;;;;15.68;66.58;92473.22;5540785;26;19986;-79
2024/04/17 01:00:27;;;;;;;14.32;3.30;;;;;;;15.70;66.31;92473.59;5540708;26;19992;-80
2024/04/17 01:02:52;;;;;;;10.02;3.13;;;;;;;15.68;66.02;92471.28;5540678;25;19985;-79
2024/04/17 01:05:18;;;;;;;11.85;3.55;;;;;;;15.63;66.28;92479.69;5540707;26;19989;-79
2024/04/17 01:07:43;;;;;;;23.70;4.38;;;;;;;15.65;66.84;92469.34;5540699;25;20204;-78
2024/04/17 01:10:09;;;;;;;16.17;3.20;;;;;;;15.64;67.21;92471.25;5541268;25;19985;-79
2024/04/17 01:12:35;;;;;;;12.88;2.97;;;;;;;15.59;67.32;92441.31;5540521;25;19985;-79
2024/04/17 01:15:01;;;;;;;10.68;3.30;;;;;;;15.62;67.69;92449.38;5508649;26;19985;-79
2024/04/17 01:17:27;;;;;;;11.55;3.08;;;;;;;15.69;68.81;92450.56;5540462;25;19985;-79
2024/04/17 01:19:52;;;;;;;11.43;2.80;;;;;;;15.68;69.17;92460.53;5541001;26;20644;-79
2024/04/17 01:22:18;;;;;;;13.63;3.15;;;;;;;15.68;69.80;92451.72;5540669;26;20233;-79
2024/04/17 01:24:43;;;;;;;8.32;3.00;;;;;;;15.69;70.13;92464.75;5508602;26;19982;-79
2024/04/17 01:27:09;;;;;;;11.35;3.67;;;;;;;15.67;70.15;92448.25;5539880;25;20013;-79
2024/04/17 01:29:34;;;;;;;8.85;3.35;;;;;;;15.62;70.26;92454.00;5540154;26;20211;-79
2024/04/17 01:31:59;;;;;;;21.75;4.50;;;;;;;15.58;70.17;92437.09;5540184;26;20119;-79
2024/04/17 01:34:25;;;;;;;11.60;3.28;;;;;;;15.58;70.16;92427.13;5540442;26;19989;-79
2024/04/17 01:36:52;;;;;;;12.75;3.75;;;;;;;15.60;70.42;92437.50;5540169;26;19993;-79
2024/04/17 01:39:17;;;;;;;8.73;3.83;;;;;;;15.54;69.95;92423.66;5540202;26;19985;-79
2024/04/17 01:41:43;;;;;;;14.25;3.90;;;;;;;15.29;70.85;92428.94;5540191;26;20204;-78
2024/04/17 01:44:08;;;;;;;15.15;4.15;;;;;;;15.07;71.27;92425.38;5540143;25;19993;-78
2024/04/17 01:46:34;;;;;;;12.98;4.00;;;;;;;15.03;71.60;92406.56;5540027;26;19981;-79
2024/04/17 01:48:59;;;;;;;11.73;3.70;;;;;;;15.03;69.87;92397.75;5539841;26;19986;-77
2024/04/17 01:51:24;;;;;;;9.98;3.80;;;;;;;15.05;70.91;92382.06;5539671;25;20204;-79
2024/04/17 01:53:50;;;;;;;13.07;4.68;;;;;;;15.09;67.84;92387.44;5539778;25;19992;-79
2024/04/17 01:56:15;;;;;;;14.20;4.50;;;;;;;15.15;67.83;92386.69;5508292;26;19985;-79
2024/04/17 01:58:41;;;;;;;10.60;4.50;;;;;;;15.18;65.76;92377.13;5539797;26;19996;-77
2024/04/17 02:01:06;;;;;;;13.43;4.82;;;;;;;15.35;62.99;92383.72;5539715;25;19982;-79
2024/04/17 02:03:36;;;;;;;19.88;4.30;;;;;;;15.51;60.40;92354.63;5539555;25;20092;-79
2024/04/17 02:06:01;;;;;;;14.77;4.53;;;;;;;15.78;58.18;92344.31;5539828;25;19997;-79
2024/04/17 02:08:26;;;;;;;14.43;4.32;;;;;;;16.09;56.06;92342.03;5539534;25;20056;-79
2024/04/17 02:10:52;;;;;;;12.02;4.22;;;;;;;16.38;53.51;92332.03;5539885;25;19989;-79
2024/04/17 02:13:18;;;;;;;9.05;3.55;;;;;;;16.55;53.66;92338.53;5540057;25;20009;-79
2024/04/17 02:15:43;;;;;;;10.60;3.85;;;;;;;16.70;53.87;92325.06;5539413;25;19985;-79
2024/04/17 02:18:08;;;;;;;11.30;3.25;;;;;;;16.79;52.45;92322.72;5507874;26;19985;-78
2024/04/17 02:20:34;;;;;;;12.50;4.68;;;;;;;16.93;52.21;92330.00;5537902;25;19985;-79
2024/04/17 02:22:59;;;;;;;17.50;4.18;;;;;;;16.97;50.84;92320.75;5536555;26;20403;-79
2024/04/17 02:25:24;;;;;;;11.18;4.45;;;;;;;17.04;51.31;92306.53;5536642;26;20204;-78
2024/04/17 02:27:50;;;;;;;19.45;4.55;;;;;;;17.07;51.40;92318.44;5537147;25;19992;-78
2024/04/17 02:30:15;;;;;;;13.45;3.85;;;;;;;17.08;51.46;92299.19;5539145;25;20041;-79
2024/04/17 02:32:41;;;;;;;10.38;4.13;;;;;;;17.12;50.99;92301.88;5539405;26;19989;-78
2024/04/17 02:35:06;;;;;;;15.32;3.42;;;;;;;17.12;51.29;92320.72;5508039;26;19985;-78
2024/04/17 02:37:31;;;;;;;13.30;3.78;;;;;;;17.02;57.84;92312.28;5539307;26;20013;-78
2024/04/17 02:39:57;;;;;;;23.50;4.10;;;;;;;16.88;57.28;92295.44;5507454;26;19989;-78
2024/04/17 02:42:22;;;;;;;14.07;4.65;;;;;;;16.76;57.95;92310.81;5538976;26;20089;-77
2024/04/17 02:44:47;;;;;;;10.95;3.92;;;;;;;16.64;59.62;92303.94;5537370;25;20000;-78
2024/04/17 02:47:13;;;;;;;14.32;3.97;;;;;;;16.58;59.78;92327.00;5539114;25;20260;-78
2024/04/17 02:49:38;;;;;;;15.40;3.67;;;;;;;16.54;54.54;92293.97;5538635;25;19992;-78
2024/04/17 02:52:04;;;;;;;14.95;4.35;;;;;;;16.57;57.93;92298.56;5538644;26;20085;-80
2024/04/17 02:54:29;;;;;;;17.25;4.40;;;;;;;16.56;58.11;92302.41;5538890;26;19989;-79
2024/04/17 02:56:54;;;;;;;13.18;4.32;;;;;;;16.45;59.14;92304.38;5539049;25;19997;-79
2024/04/17 02:59:20;;;;;;;18.85;4.25;;;;;;;16.39;57.84;92297.84;5507074;26;19986;-80
2024/04/17 03:01:45;;;;;;;10.80;3.67;;;;;;;16.36;57.16;92287.84;5538742;26;19993;-80
2024/04/17 03:04:10;;;;;;;12.07;3.70;;;;;;;16.35;58.79;92294.41;5539020;26;19981;-78
2024/04/17 03:06:36;;;;;;;9.55;4.32;;;;;;;16.33;57.92;92312.84;5538882;25;19997;-79
2024/04/17 03:09:01;;;;;;;19.02;4.25;;;;;;;16.37;57.51;92303.59;5538894;25;19993;-79
2024/04/17 03:11:27;;;;;;;7.85;3.00;;;;;;;16.42;57.86;92327.44;5538711;25;19996;-79
2024/04/17 03:13:52;;;;;;;9.70;3.47;;;;;;;16.55;53.36;92300.88;5538782;25;19989;-79
2024/04/17 03:16:18;;;;;;;13.55;4.38;;;;;;;16.67;54.44;92296.22;5538993;25;19992;-79
2024/04/17 03:18:45;;;;;;;12.80;3.30;;;;;;;16.69;53.42;92305.47;5538640;26;19986;-79
2024/04/17 03:21:11;;;;;;;11.52;3.05;;;;;;;16.74;52.56;92286.22;5538497;25;19987;-80
2024/04/17 03:23:36;;;;;;;12.48;4.07;;;;;;;16.81;51.94;92286.25;5538914;25;19981;-79
2024/04/17 03:26:02;;;;;;;9.75;3.65;;;;;;;16.87;53.90;92291.97;5538284;25;19993;-80
2024/04/17 03:28:27;;;;;;;11.68;3.33;;;;;;;16.87;53.17;92296.59;5506301;26;20100;-79
2024/04/17 03:30:53;;;;;;;13.10;3.30;;;;;;;16.91;54.56;92306.16;5538366;25;20046;-80
2024/04/17 03:33:19;;;;;;;10.20;3.55;;;;;;;16.92;55.33;92302.34;5538144;26;20137;-80
2024/04/17 03:35:56;;;;;;;13.57;5.13;;;;;;;16.89;55.61;92297.72;5538681;26;20186;-79
2024/04/17 03:38:21;;;;;;;16.10;4.00;;;;;;;16.86;55.71;92263.53;5537958;25;20095;-80
2024/04/17 03:40:47;;;;;;;12.43;3.80;;;;;;;16.87;55.16;92270.44;5538018;25;19989;-79
2024/04/17 03:43:12;;;;;;;11.52;3.15;;;;;;;16.83;56.20;92264.31;5537659;26;19981;-79
2024/04/17 03:45:37;;;;;;;11.35;2.75;;;;;;;16.90;56.00;92274.28;5537888;25;20026;-80
2024/04/17 03:48:03;;;;;;;13.48;3.80;;;;;;;16.85;57.17;92272.75;5537777;25;19985;-79
2024/04/17 03:50:28;;;;;;;11.35;2.88;;;;;;;16.72;57.20;92283.16;5537451;25;19992;-79
2024/04/17 03:52:54;;;;;;;8.18;3.30;;;;;;;16.59;57.54;92269.38;5538037;26;20005;-80
2024/04/17 03:55:19;;;;;;;11.40;3.10;;;;;;;16.48;57.45;92274.00;5537667;25;20196;-79
2024/04/17 03:57:44;;;;;;;11.18;3.15;;;;;;;16.35;60.69;92244.09;5539847;25;19989;-79
2024/04/17 04:00:10;;;;;;;6.45;2.17;;;;;;;16.20;60.30;92270.22;5542161;25;19985;-79
2024/04/17 04:02:35;;;;;;;12.65;2.97;;;;;;;16.01;62.35;92257.19;5541871;26;19981;-79
2024/04/17 04:05:01;;;;;;;18.20;2.75;;;;;;;15.71;61.52;92263.69;5541430;26;19985;-78
2024/04/17 04:07:26;;;;;;;9.63;3.08;;;;;;;15.68;63.46;92256.41;5541143;25;19981;-80
2024/04/17 04:09:52;;;;;;;13.02;3.45;;;;;;;15.50;62.09;92226.88;5541409;25;19996;-78
2024/04/17 04:12:17;;;;;;;8.35;2.03;;;;;;;15.51;64.33;92247.22;5541484;26;20212;-78
2024/04/17 04:14:42;;;;;;;8.48;3.10;;;;;;;15.41;63.56;92259.47;5540946;25;20049;-78
2024/04/17 04:17:08;;;;;;;10.77;2.45;;;;;;;15.37;63.42;92237.22;5541271;26;19992;-78
2024/04/17 04:19:33;;;;;;;8.52;2.00;;;;;;;15.25;65.53;92251.00;5509643;26;19989;-79
2024/04/17 04:21:59;;;;;;;8.23;2.15;;;;;;;15.17;65.32;92250.22;5540970;26;19989;-79
2024/04/17 04:24:24;;;;;;;7.45;2.38;;;;;;;15.13;64.64;92241.41;5509025;26;19993;-80
2024/04/17 04:26:49;;;;;;;6.15;1.65;;;;;;;15.16;63.47;92231.81;5541367;25;20049;-80
2024/04/17 04:29:15;;;;;;;8.02;1.63;;;;;;;15.16;65.11;92226.44;5541054;25;19982;-79
2024/04/17 04:31:40;;;;;;;10.10;2.65;;;;;;;15.16;65.15;92221.88;5540738;25;20204;-79
2024/04/17 04:34:05;;;;;;;10.32;2.75;;;;;;;15.06;68.43;92257.47;5541218;26;20178;-79
2024/04/17 04:36:31;;;;;;;9.98;2.90;;;;;;;15.05;67.94;92237.16;5541290;25;20226;-79
2024/04/17 04:38:56;;;;;;;25.45;3.83;;;;;;;14.93;67.37;92211.47;5540912;26;19992;-79
2024/04/17 04:41:22;;;;;;;8.38;2.38;;;;;;;14.89;67.81;92234.06;5540447;25;20005;-79
2024/04/17 04:43:47;;;;;;;9.30;2.47;;;;;;;14.77;68.26;92240.53;5540602;25;19981;-79
2024/04/17 04:46:12;;;;;;;12.82;2.85;;;;;;;14.73;67.75;92250.50;5541669;26;20088;-80
2024/04/17 04:48:38;;;;;;;7.18;2.88;;;;;;;14.68;68.65;92229.41;5541158;25;20084;-79
2024/04/17 04:51:04;;;;;;;5.80;2.67;;;;;;;14.66;68.45;92258.53;5541029;26;19996;-79
2024/04/17 04:53:29;;;;;;;6.13;2.17;;;;;;;14.57;68.93;92248.91;5541196;26;20004;-79
2024/04/17 04:55:58;;;;;;;8.23;2.42;;;;;;;14.58;69.97;92263.84;5540892;26;19985;-78
2024/04/17 04:58:25;;;;;;;6.68;2.38;;;;;;;14.58;70.13;92258.47;5540824;25;19985;-80
2024/04/17 05:00:51;;;;;;;12.02;2.50;;;;;;;14.54;73.02;92254.97;5540744;25;19989;-80
2024/04/17 05:03:17;;;;;;;8.27;2.47;;;;;;;14.50;69.75;92294.41;5540738;25;20077;-80
2024/04/17 05:05:43;;;;;;;8.90;2.03;;;;;;;14.46;73.71;92293.63;5540539;26;20038;-80
2024/04/17 05:08:08;;;;;;;6.60;1.75;;;;;;;14.42;71.92;92274.06;5540144;25;20176;-80
2024/04/17 05:10:34;;;;;;;6.82;2.17;;;;;;;14.33;74.58;92287.81;5540896;25;19992;-79
2024/04/17 05:13:00;;;;;;;8.98;1.80;;;;;;;14.28;72.15;92277.44;5540344;26;19992;-77
2024/04/17 05:15:25;;;;;;;5.75;1.52;;;;;;;14.37;72.55;92267.16;5540683;26;20104;-78
2024/04/17 05:17:51;;;;;;;3.30;1.35;;;;;;;14.28;74.42;92266.72;5540726;26;19991;-78
2024/04/17 05:20:16;;;;;;;6.72;2.53;;;;;;;14.28;74.72;92249.88;5508741;26;20089;-78
2024/04/17 05:22:42;;;;;;;3.45;1.05;;;;;;;14.28;72.56;92263.28;5540521;26;19989;-78
2024/04/17 05:25:07;;;;;;;5.20;1.50;;;;;;;14.22;74.10;92265.53;5540150;26;19996;-78
2024/04/17 05:27:32;;;;;;;6.30;1.45;;;;;;;14.12;76.72;92280.41;5540503;25;19997;-79
2024/04/17 05:29:58;;;;;;;3.70;1.50;;;;;;;14.10;76.44;92298.75;5540948;26;19990;-79
2024/04/17 05:32:23;;;;;;;8.90;1.98;;;;;;;14.03;75.02;92294.13;5540250;25;20181;-79
2024/04/17 05:34:48;;;;;;;3.58;1.33;;;;;;;14.10;77.47;92295.31;5540201;26;20221;-79
2024/04/17 05:37:14;;;;;;;5.53;1.80;;;;;;;14.11;77.20;92299.53;5540082;25;19994;-79
2024/04/17 05:39:39;;;;;;;6.53;2.03;;;;;;;14.11;76.47;92281.56;5540631;26;20000;-79
2024/04/17 05:42:05;;;;;;;6.93;2.05;;;;;;;14.20;76.09;92238.34;5539582;25;19992;-79
2024/04/17 05:44:31;;;;;;;4.40;2.33;;;;;;;14.19;74.31;92226.88;5540202;26;20208;-78
2024/04/17 05:46:56;;;;;;;5.55;2.28;;;;;;;14.22;74.70;92210.03;5540120;25;19997;-79
2024/04/17 05:49:22;;;;;;;6.32;2.50;;;;;;;14.19;76.71;92228.78;5540026;26;19981;-79
2024/04/17 05:51:48;;;;;;;9.43;2.35;;;;;;;14.18;76.09;92229.91;5540097;26;20037;-78
2024/04/17 05:54:14;;;;;;;3.58;1.70;;;;;;;14.18;75.41;92246.75;5540224;26;19981;-78
2024/04/17 05:56:39;;;;;;;2.67;1.33;;;;;;;14.21;74.83;92229.94;5538757;25;20009;-78
2024/04/17 05:59:05;;;;;;;6.00;1.88;;;;;;;14.21;73.13;92227.25;5536973;26;20013;-78
2024/04/17 06:01:30;;;;;;;3.50;1.38;;;;;;;14.16;73.88;92230.28;5537868;25;19990;-79
2024/04/17 06:03:56;;;;;;;4.13;1.73;;;;;;;14.16;72.00;92216.13;5539923;25;19992;-78
2024/04/17 06:06:21;;;;;;;4.80;2.38;;;;;;;14.31;73.33;92212.38;5538966;26;19985;-78
2024/04/17 06:08:47;;;;;;;7.97;1.83;;;;;;;14.36;71.22;92200.53;5539203;26;19986;-79
2024/04/17 06:11:13;;;;;;;5.25;1.85;;;;;;;14.47;70.61;92217.44;5539913;26;19995;-79
2024/04/17 06:13:40;;;;;;;4.18;1.50;;;;;;;14.49;70.47;92225.88;5540013;26;19989;-79
2024/04/17 06:16:06;;;;;;;6.47;1.67;;;;;;;14.54;71.75;92225.50;5540309;25;20042;-79
2024/04/17 06:18:31;;;;;;;4.75;1.10;;;;;;;14.62;68.93;92239.72;5539672;25;19989;-79
2024/04/17 06:20:56;;;;;;;2.67;1.27;;;;;;;14.70;68.74;92251.25;5538524;26;19981;-78
2024/04/17 06:23:22;;;;;;;5.40;1.17;;;;;;;14.71;69.19;92277.69;5539947;25;19985;-78
2024/04/17 06:25:48;;;;;;;4.72;1.60;;;;;;;14.57;67.63;92215.94;5539028;26;19996;-78
2024/04/17 06:28:14;;;;;;;3.15;1.27;;;;;;;14.57;69.61;92227.47;5539443;26;20081;-81
2024/04/17 06:30:40;;;;;;;3.92;1.20;;;;;;;14.53;68.85;92191.00;5539212;26;20038;-78
2024/04/17 06:33:05;;;;;;;4.45;0.90;;;;;;;14.61;66.12;92251.59;5539844;25;20001;-78
2024/04/17 06:35:33;;;;;;;6.28;1.25;;;;;;;14.51;68.37;92231.63;5540055;26;19986;-78
2024/04/17 06:37:59;;;;;;;10.10;1.35;;;;;;;14.57;67.78;92221.31;5539794;25;20133;-79
2024/04/17 06:40:24;;;;;;;3.35;0.85;;;;;;;14.62;70.56;92221.72;5539383;26;20027;-79
2024/04/17 06:42:50;;;;;;;1.98;0.85;;;;;;;14.62;70.45;92253.13;5539380;26;20041;-79
2024/04/17 06:45:15;;;;;;;3.58;1.08;;;;;;;14.71;70.61;92248.16;5539139;25;19998;-79
2024/04/17 06:47:40;;;;;;;3.63;0.50;;;;;;;14.54;65.82;92244.25;5539242;26;19997;-79
2024/04/17 06:50:06;;;;;;;0.25;0.20;;;;;;;14.51;67.60;92279.88;5539234;26;19996;-78
2024/04/17 06:52:31;;;;;;;1.88;0.60;;;;;;;14.59;68.27;92243.94;5539609;25;20184;-79
2024/04/17 06:54:57;;;;;;;1.55;0.95;;;;;;;14.42;65.81;92199.03;5538946;25;20098;-80
2024/04/17 06:57:22;;;;;;;7.45;0.95;;;;;;;14.35;65.52;92205.13;5539030;25;19997;-87
2024/04/17 06:59:48;;;;;;;2.83;0.82;;;;;;;14.34;68.04;92187.50;5539401;25;19985;-92
2024/04/17 07:02:13;;;;;;;3.42;0.73;;;;;;;14.34;66.66;92166.06;5539559;26;19985;-90
2024/04/17 07:04:39;;;;;;;3.38;0.63;;;;;;;14.36;66.67;92181.78;5539659;25;19993;-88
2024/04/17 07:07:04;;;;;;;0.30;0.20;;;;;;;14.43;64.09;92157.66;5538973;26;19989;-89
2024/04/17 07:09:30;;;;;;;0.85;0.40;;;;;;;14.56;66.81;92230.50;5539559;25;19985;-91
2024/04/17 07:11:55;;;;;;;1.58;0.20;;;;;;;14.33;66.83;92182.50;5538381;26;20102;-88
2024/04/17 07:14:21;;;;;;;0.77;0.30;;;;;;;13.96;71.04;92167.41;5538306;25;20137;-77
2024/04/17 07:16:46;;;;;;;1.17;0.30;;;;;;;13.67;70.05;92187.91;5506297;26;20096;-77
2024/04/17 07:19:11;;;;;;;2.63;0.43;;;;;;;13.50;72.90;92200.03;5538368;26;19986;-76
2024/04/17 07:21:37;;;;;;;0.47;0.25;;;;;;;13.43;74.97;92203.41;5538309;26;19985;-76
2024/04/17 07:24:03;;;;;;;1.30;0.47;;;;;;;13.44;73.41;92173.59;5538316;26;19997;-79
2024/04/17 07:26:29;;;;;;;1.10;0.38;;;;;;;13.52;72.73;92203.13;5538102;26;19989;-77
2024/04/17 07:28:55;;;;;;;3.63;0.45;;;;;;;13.42;75.75;92274.91;5538002;26;20130;-88
2024/04/17 07:31:20;;;;;;;3.15;0.93;;;;;;;13.23;76.51;92227.69;5538968;25;19996;-77
2024/04/17 07:33:49;;;;;;;4.40;0.90;;;;;;;13.16;78.61;92245.59;5541850;25;20050;-79
2024/04/17 07:36:15;;;;;;;2.90;0.77;;;;;;;13.00;78.53;92237.78;5540771;25;19986;-78
2024/04/17 07:38:40;;;;;;;3.75;0.88;;;;;;;12.95;81.34;92235.47;5542182;25;20070;-78
2024/04/17 07:41:05;;;;;;;1.50;0.30;;;;;;;12.85;79.00;92197.53;5541560;25;19997;-78
2024/04/17 07:43:32;;;;;;;0.45;0.40;;;;;;;12.97;80.58;92177.03;5541742;25;19992;-78
2024/04/17 07:46:01;;;;;;;1.45;0.50;;;;;;;13.14;76.95;92157.69;5541184;25;20010;-78
2024/04/17 07:48:27;;;;;;;0.82;0.55;;;;;;;13.37;78.50;92149.50;5540962;25;19985;-78
2024/04/17 07:50:52;;;;;;;2.40;0.80;;;;;;;13.48;77.53;92136.19;5541428;26;20043;-77
2024/04/17 07:53:18;;;;;;;3.25;0.50;;;;;;;13.56;76.09;92142.34;5541554;25;19989;-78
2024/04/17 07:55:43;;;;;;;1.48;0.52;;;;;;;13.68;73.63;92147.38;5509766;26;20077;-77
2024/04/17 07:58:09;;;;;;;0.60;0.50;;;;;;;13.83;73.60;92145.56;5541741;26;19988;-78
2024/04/17 08:00:35;;;;;;;0.55;0.50;;;;;;;13.93;69.20;92093.94;5541114;26;19985;-78
2024/04/17 08:03:01;;;;;;;3.70;0.65;;;;;;;14.11;69.34;92118.13;5541655;26;19986;-78
2024/04/17 08:05:27;;;;;;;1.70;0.55;;;;;;;14.17;68.14;92134.63;5541178;26;19996;-78
2024/04/17 08:07:56;;;;;;;5.65;0.60;;;;;;;14.31;66.51;92115.13;5541296;25;20006;-78
2024/04/17 08:10:21;;;;;;;2.30;1.00;;;;;;;14.43;66.38;92118.25;5541419;26;20193;-77
2024/04/17 08:12:47;;;;;;;8.27;1.05;;;;;;;14.58;67.63;92164.63;5541408;26;19996;-77
2024/04/17 08:15:13;;;;;;;1.10;0.55;;;;;;;14.66;65.71;92135.94;5541410;25;19986;-78
2024/04/17 08:17:44;;;;;;;4.47;0.70;;;;;;;14.72;67.35;92155.88;5541818;25;19986;-78
2024/04/17 08:20:10;;;;;;;0.60;0.30;;;;;;;14.77;64.21;92160.09;5541565;25;20221;-79
2024/04/17 08:22:35;;;;;;;2.85;0.93;;;;;;;14.92;63.72;92167.03;5541624;25;19992;-79
2024/04/17 08:25:01;;;;;;;1.20;0.40;;;;;;;15.00;64.20;92165.09;5541429;26;20118;-79
2024/04/17 08:27:26;;;;;;;0.52;0.30;;;;;;;15.07;66.48;92165.13;5541219;26;19992;-77
2024/04/17 08:29:52;;;;;;;1.50;0.30;;;;;;;15.00;64.58;92173.94;5541062;26;20076;-77
2024/04/17 08:32:17;;;;;;;1.38;0.40;;;;;;;14.92;65.84;92168.91;5541220;26;20185;-77
2024/04/17 08:34:42;;;;;;;0.52;0.30;;;;;;;14.91;64.83;92132.53;5541168;26;19991;-75
2024/04/17 08:37:08;;;;;;;1.45;0.52;;;;;;;15.00;62.25;92165.09;5540999;25;20189;-76
2024/04/17 08:39:33;;;;;;;1.48;0.30;;;;;;;15.10;63.54;92153.63;5540895;26;19989;-77
2024/04/17 08:42:06;;;;;;;0.32;0.20;;;;;;;15.17;62.88;92167.03;5540566;26;19992;-77
2024/04/17 08:44:35;;;;;;;2.78;0.30;;;;;;;15.21;62.65;92165.13;5507842;26;20037;-76
2024/04/17 08:47:03;;;;;;;1.17;0.40;;;;;;;15.32;62.32;92172.41;5540141;26;19988;-76
2024/04/17 08:49:32;;;;;;;2.55;0.30;;;;;;;15.33;60.30;92188.13;5540498;25;20100;-76
2024/04/17 08:51:59;;;;;;;1.45;0.47;;;;;;;15.49;62.02;92157.44;5540683;25;19989;-77
2024/04/17 08:54:25;;;;;;;0.80;0.32;;;;;;;15.60;60.32;92142.09;5540411;25;19997;-78
2024/04/17 08:56:50;;;;;;;0.50;0.40;;;;;;;15.65;60.73;92155.13;5540684;25;19986;-77
2024/04/17 08:59:16;;;;;;;0.88;0.55;;;;;;;15.80;61.25;92134.44;5540705;25;20092;-77
2024/04/17 09:01:42;;;;;;;1.63;0.50;;;;;;;15.86;60.30;92153.59;5540792;26;20082;-79
2024/04/17 09:04:07;;;;;;;3.83;0.40;;;;;;;16.02;60.12;92156.63;5540428;25;19997;-77
2024/04/17 09:06:34;;;;;;;5.38;0.90;;;;;;;16.17;59.77;92168.84;5540661;26;20057;-77
2024/04/17 09:09:03;;;;;;;0.93;0.40;;;;;;;16.36;60.65;92170.31;5540707;25;20292;-77
2024/04/17 09:11:30;;;;;;;3.67;1.08;;;;;;;16.60;59.31;92174.06;5540408;25;19986;-78
2024/04/17 09:13:55;;;;;;;5.03;0.60;;;;;;;16.82;58.48;92180.13;5540639;26;20037;-78
2024/04/17 09:16:21;;;;;;;1.88;0.80;;;;;;;17.03;57.14;92190.00;5540184;26;20001;-78
2024/04/17 09:18:48;;;;;;;2.80;0.77;;;;;;;17.33;57.62;92194.06;5508247;26;19986;-78
2024/04/17 09:21:14;;;;;;;2.88;0.85;;;;;;;17.64;57.42;92192.25;5540442;26;20018;-77
2024/04/17 09:23:39;;;;;;;3.90;0.88;;;;;;;17.90;56.07;92165.91;5540633;25;20200;-77
2024/04/17 09:26:17;;;;;;;4.88;0.93;;;;;;;18.19;57.96;92182.53;5540191;25;20208;-78
2024/04/17 09:28:42;;;;;;;7.40;1.35;;;;;;;18.29;53.95;92183.59;5540049;26;19989;-77
2024/04/17 09:31:09;;;;;;;7.82;2.15;;;;;;;18.60;51.97;92183.63;5508634;26;19998;-80
2024/04/17 09:33:41;;;;;;;4.82;0.98;;;;;;;18.84;54.75;92181.81;5540416;25;20002;-78
2024/04/17 09:36:06;;;;;;;4.33;1.23;;;;;;;19.09;53.91;92172.63;5540887;25;19985;-79
2024/04/17 09:38:32;;;;;;;4.80;1.10;;;;;;;19.29;50.43;92168.06;5537880;25;19992;-77
2024/04/17 09:40:57;;;;;;;6.40;1.25;;;;;;;19.49;49.88;92156.59;5539525;26;19988;-78
2024/04/17 09:43:24;;;;;;;7.50;1.92;;;;;;;19.71;52.55;92187.53;5539947;26;20062;-77
2024/04/17 09:45:58;;;;;;;9.48;2.10;;;;;;;19.97;48.47;92166.25;5540018;25;20009;-77
2024/04/17 09:48:27;;;;;;;9.35;1.70;;;;;;;20.02;47.22;92163.06;5540258;26;19993;-78
2024/04/17 09:51:02;;;;;;;5.75;1.63;;;;;;;20.13;50.79;92163.66;5540010;26;20041;-78
2024/04/17 09:53:34;;;;;;;9.30;1.52;;;;;;;20.12;47.95;92153.25;5540454;25;19997;-77
2024/04/17 09:56:00;;;;;;;12.55;2.28;;;;;;;20.08;45.43;92174.94;5506679;26;19982;-76
2024/04/17 09:58:32;;;;;;;12.77;1.60;;;;;;;20.22;46.35;92161.16;5539954;26;20089;-77
2024/04/17 10:01:08;;;;;;;7.00;1.75;;;;;;;20.49;46.47;92164.91;5539529;26;19985;-80
2024/04/17 10:03:34;;;;;;;14.85;2.25;;;;;;;20.81;45.56;92150.75;5539247;25;20025;-78
2024/04/17 10:06:00;;;;;;;9.15;1.35;;;;;;;20.84;44.82;92158.03;5540269;26;19989;-77
2024/04/17 10:08:30;;;;;;;10.18;1.58;;;;;;;21.02;45.00;92153.03;5539613;25;19985;-78
2024/04/17 10:10:56;;;;;;;5.72;1.60;;;;;;;21.13;46.17;92130.34;5539331;25;20009;-78
2024/04/17 10:13:26;;;;;;;6.72;1.15;;;;;;;21.25;45.16;92148.66;5539643;26;19981;-77
2024/04/17 10:15:53;;;;;;;8.55;1.63;;;;;;;20.93;45.58;92143.94;5539532;25;19989;-77
2024/04/17 10:18:19;;;;;;;11.55;1.95;;;;;;;20.88;44.44;92126.22;5538758;26;20207;-77
2024/04/17 10:20:45;;;;;;;8.48;1.55;;;;;;;21.00;47.31;92114.78;5539310;25;19986;-79
2024/04/17 10:23:13;;;;;;;13.35;2.10;;;;;;;20.67;44.62;92105.78;5539547;25;20001;-80
2024/04/17 10:25:54;;;;;;;12.25;1.48;;;;;;;20.59;46.57;92105.19;5508192;25;19996;-81
2024/04/17 10:28:21;;;;;;;10.73;1.48;;;;;;;20.75;45.12;92099.06;5539699;26;20013;-79
2024/04/17 10:30:48;;;;;;;9.73;2.50;;;;;;;20.78;45.53;92102.84;5505162;26;19981;-80
2024/04/17 10:33:30;;;;;;;11.90;3.35;;;;;;;20.78;44.00;92121.81;5536840;26;19989;-81
2024/04/17 10:35:57;;;;;;;3.58;1.50;;;;;;;20.23;44.99;92102.41;5537301;25;20006;-80
2024/04/17 10:38:26;;;;;;;6.82;1.75;;;;;;;20.24;45.70;92098.53;5538066;25;19992;-80
2024/04/17 10:41:02;;;;;;;6.88;1.88;;;;;;;19.67;45.28;92097.63;5537582;26;20037;-79
2024/04/17 10:43:31;;;;;;;11.98;1.92;;;;;;;19.54;44.17;92110.97;5537922;26;20000;-81
2024/04/17 10:46:09;;;;;;;5.93;1.30;;;;;;;19.50;45.21;92066.25;5507513;26;20049;-81
2024/04/17 10:48:47;;;;;;;8.15;1.58;;;;;;;19.20;45.76;92057.13;5539200;26;20079;-80
2024/04/17 10:51:17;;;;;;;4.53;1.13;;;;;;;19.01;46.37;92072.84;5539223;25;19986;-80
2024/04/17 10:53:45;;;;;;;11.35;2.05;;;;;;;19.06;46.98;92065.44;5539355;26;20008;-81
2024/04/17 10:56:11;;;;;;;9.55;1.85;;;;;;;19.39;46.58;92051.00;5539082;26;19985;-80
2024/04/17 10:58:38;;;;;;;13.18;1.77;;;;;;;19.36;45.06;92054.53;5538897;26;19992;-80
2024/04/17 11:01:04;;;;;;;11.00;1.83;;;;;;;19.09;45.07;92053.81;5539238;26;19985;-80
2024/04/17 11:03:29;;;;;;;11.50;1.83;;;;;;;18.95;45.37;92050.19;5538816;26;20104;-80
2024/04/17 11:05:55;;;;;;;5.97;1.45;;;;;;;18.87;44.84;92034.47;5539139;26;20017;-80
2024/04/17 11:08:21;;;;;;;13.63;1.80;;;;;;;19.20;45.66;92032.81;5542390;26;20086;-80
2024/04/17 11:10:47;;;;;;;7.53;1.63;;;;;;;19.31;45.17;92029.91;5542530;26;19988;-80
2024/04/17 11:13:16;;;;;;;11.30;2.20;;;;;;;19.53;44.47;92019.50;5542488;25;19989;-80
2024/04/17 11:15:42;;;;;;;14.38;1.98;;;;;;;19.66;44.61;92042.03;5542630;26;20146;-79
2024/04/17 11:18:08;;;;;;;11.20;1.67;;;;;;;19.53;43.72;92027.63;5542612;25;19988;-80
2024/04/17 11:20:38;;;;;;;9.32;1.67;;;;;;;19.50;44.72;92025.72;5542515;26;19986;-80
2024/04/17 11:23:07;;;;;;;9.52;1.73;;;;;;;19.62;43.98;92046.72;5542543;25;19989;-81
2024/04/17 11:25:40;;;;;;;4.43;1.10;;;;;;;19.68;45.16;92034.25;5542343;25;20080;-80